Time;durP1;ratioP1;P1;durP2;ratioP2;P2;SDS_P1;SDS_P2;PMS_P1;PMS_P2;Temp;Humidity;BMP_temperature;BMP_pressure;BME280_temperature;BME280_humidity;BME280_pressure;Samples;Min_cycle;Max_cycle;Signal;HPM_P1;HPM_P2
2023/03/17 00:02:15;;;;;;;5.67;4.27;;;;;;;;;;5046327;28;20435;-68
2023/03/17 00:04:42;;;;;;;4.10;3.77;;;;;;;;;;5046750;28;20453;-68
2023/03/17 00:07:09;;;;;;;3.63;3.33;;;;;;;;;;5044514;28;20934;-68
2023/03/17 00:09:35;;;;;;;4.90;3.17;;;;;;;;;;5048413;28;20442;-68
2023/03/17 00:12:01;;;;;;;6.03;4.93;;;;;;;;;;5047383;28;20601;-68
2023/03/17 00:14:27;;;;;;;3.80;3.27;;;;;;;;;;5048677;28;20481;-68
2023/03/17 00:16:53;;;;;;;3.60;3.30;;;;;;;;;;5048142;28;20446;-68
2023/03/17 00:19:30;;;;;;;3.47;3.23;;;;;;;;;;5040590;28;20450;-69
2023/03/17 00:21:56;;;;;;;2.93;2.83;;;;;;;;;;5047359;28;20473;-69
2023/03/17 00:24:23;;;;;;;2.53;2.33;;;;;;;;;;5047830;28;20441;-68
2023/03/17 00:26:48;;;;;;;4.50;3.30;;;;;;;;;;5048347;28;20469;-68
2023/03/17 00:29:15;;;;;;;2.83;2.67;;;;;;;;;;5044440;28;20480;-69
2023/03/17 00:31:41;;;;;;;3.63;2.80;;;;;;;;;;5042494;28;20476;-68
2023/03/17 00:34:11;;;;;;;2.93;2.73;;;;;;;;;;5045738;28;20482;-69
2023/03/17 00:36:37;;;;;;;2.57;2.47;;;;;;;;;;5046458;28;20426;-68
2023/03/17 00:39:06;;;;;;;1.73;1.73;;;;;;;;;;5042821;28;20988;-68
2023/03/17 00:41:32;;;;;;;3.13;2.80;;;;;;;;;;5048600;28;20426;-68
2023/03/17 00:43:58;;;;;;;2.70;1.90;;;;;;;;;;5044658;28;20444;-69
2023/03/17 00:46:27;;;;;;;2.47;2.27;;;;;;;;;;5046171;28;20430;-68
2023/03/17 00:48:53;;;;;;;2.40;1.80;;;;;;;;;;5048163;28;20449;-68
2023/03/17 00:51:20;;;;;;;2.40;2.30;;;;;;;;;;5044785;28;20427;-68
2023/03/17 00:53:46;;;;;;;2.50;2.30;;;;;;;;;;5043761;28;20580;-68
2023/03/17 00:56:14;;;;;;;3.17;2.27;;;;;;;;;;5042898;28;20454;-68
2023/03/17 00:58:40;;;;;;;2.00;1.90;;;;;;;;;;5046946;28;21200;-68
2023/03/17 01:01:07;;;;;;;2.40;2.30;;;;;;;;;;5047030;28;20426;-68
2023/03/17 01:03:33;;;;;;;1.63;1.60;;;;;;;;;;5047574;28;20437;-68
2023/03/17 01:06:01;;;;;;;1.67;1.57;;;;;;;;;;5046614;28;20445;-68
2023/03/17 01:08:28;;;;;;;3.20;1.80;;;;;;;;;;5044480;28;20511;-69
2023/03/17 01:10:55;;;;;;;2.40;2.30;;;;;;;;;;5043552;28;20435;-68
2023/03/17 01:13:21;;;;;;;1.50;1.50;;;;;;;;;;5051590;28;20909;-69
2023/03/17 01:15:49;;;;;;;4.47;1.80;;;;;;;;;;5050886;28;20499;-68
2023/03/17 01:18:16;;;;;;;1.43;1.43;;;;;;;;;;5049034;28;20446;-68
2023/03/17 01:20:42;;;;;;;2.53;2.33;;;;;;;;;;5051074;28;20437;-68
2023/03/17 01:23:08;;;;;;;2.23;2.07;;;;;;;;;;5050104;28;20450;-68
2023/03/17 01:25:35;;;;;;;2.07;1.97;;;;;;;;;;5052331;28;20462;-68
2023/03/17 01:28:02;;;;;;;1.80;1.70;;;;;;;;;;5047862;28;20445;-68
2023/03/17 01:30:30;;;;;;;2.10;2.00;;;;;;;;;;5050581;28;20839;-68
2023/03/17 01:32:57;;;;;;;1.70;1.70;;;;;;;;;;5044743;28;20506;-68
2023/03/17 01:35:24;;;;;;;1.93;1.93;;;;;;;;;;5052120;28;20445;-68
2023/03/17 01:37:50;;;;;;;2.13;2.03;;;;;;;;;;5049253;28;20441;-68
2023/03/17 01:40:18;;;;;;;2.27;2.17;;;;;;;;;;5049321;28;20442;-68
2023/03/17 01:42:48;;;;;;;2.73;2.50;;;;;;;;;;5051235;28;20461;-68
2023/03/17 01:45:34;;;;;;;9.63;2.73;;;;;;;;;;5047606;28;20430;-68
2023/03/17 01:48:00;;;;;;;2.50;2.40;;;;;;;;;;5039890;28;20434;-68
2023/03/17 01:50:26;;;;;;;1.70;1.60;;;;;;;;;;5048969;28;20505;-68
2023/03/17 01:52:52;;;;;;;3.33;2.30;;;;;;;;;;5049803;28;20480;-68
2023/03/17 01:55:19;;;;;;;3.57;2.13;;;;;;;;;;5046249;28;20434;-69
2023/03/17 01:57:53;;;;;;;2.00;2.00;;;;;;;;;;5048469;28;20431;-69
2023/03/17 02:00:20;;;;;;;3.73;2.03;;;;;;;;;;5048288;28;20480;-68
2023/03/17 02:02:48;;;;;;;3.57;2.23;;;;;;;;;;5044916;28;20537;-68
2023/03/17 02:05:17;;;;;;;2.40;2.20;;;;;;;;;;5048087;28;20514;-69
2023/03/17 02:07:43;;;;;;;1.90;1.90;;;;;;;;;;5045182;28;20434;-68
2023/03/17 02:10:11;;;;;;;1.93;1.83;;;;;;;;;;5047733;28;20454;-68
2023/03/17 02:12:39;;;;;;;2.00;2.00;;;;;;;;;;5048952;28;20591;-68
2023/03/17 02:15:06;;;;;;;1.73;1.63;;;;;;;;;;5047777;28;20526;-69
2023/03/17 02:17:33;;;;;;;3.27;1.53;;;;;;;;;;5045483;28;20994;-69
2023/03/17 02:20:28;;;;;;;2.43;2.10;;;;;;;;;;5047371;28;20434;-68
2023/03/17 02:22:54;;;;;;;6.80;4.00;;;;;;;;;;5021372;28;20455;-68
2023/03/17 02:25:21;;;;;;;5.27;4.80;;;;;;;;;;5048946;28;20430;-69
2023/03/17 02:27:56;;;;;;;35.30;18.30;;;;;;;;;;5049789;28;20430;-69
2023/03/17 02:30:23;;;;;;;42.37;21.80;;;;;;;;;;5046412;28;20427;-68
2023/03/17 02:32:49;;;;;;;31.07;17.57;;;;;;;;;;5042501;28;20470;-69
2023/03/17 02:35:15;;;;;;;16.93;11.43;;;;;;;;;;5048725;28;20528;-68
2023/03/17 02:37:45;;;;;;;10.77;7.27;;;;;;;;;;5048037;28;20914;-68
2023/03/17 02:40:12;;;;;;;5.10;4.17;;;;;;;;;;5049447;28;20876;-68
2023/03/17 02:42:38;;;;;;;3.00;2.80;;;;;;;;;;5048686;28;20427;-69
2023/03/17 02:45:05;;;;;;;2.90;2.60;;;;;;;;;;5048367;28;20453;-68
2023/03/17 02:47:31;;;;;;;3.13;2.17;;;;;;;;;;5049775;28;20496;-68
2023/03/17 02:49:57;;;;;;;2.57;2.47;;;;;;;;;;5047335;28;20800;-68
2023/03/17 02:52:24;;;;;;;2.43;2.33;;;;;;;;;;5049114;28;20961;-68
2023/03/17 02:54:50;;;;;;;3.23;2.53;;;;;;;;;;5048818;28;20891;-68
2023/03/17 02:57:16;;;;;;;2.40;2.20;;;;;;;;;;5048971;28;20446;-68
2023/03/17 02:59:42;;;;;;;2.23;1.80;;;;;;;;;;5048448;28;20435;-68
2023/03/17 03:02:08;;;;;;;1.47;1.47;;;;;;;;;;5048377;28;20442;-68
2023/03/17 03:04:35;;;;;;;2.10;2.00;;;;;;;;;;5045241;28;21312;-68
2023/03/17 03:07:01;;;;;;;1.40;1.40;;;;;;;;;;5046221;28;20449;-68
2023/03/17 03:09:28;;;;;;;3.00;2.80;;;;;;;;;;5048480;28;20557;-68
2023/03/17 03:11:54;;;;;;;2.80;2.70;;;;;;;;;;5048773;28;20470;-69
2023/03/17 03:14:21;;;;;;;2.47;2.37;;;;;;;;;;5041765;28;20559;-68
2023/03/17 03:16:47;;;;;;;2.63;2.17;;;;;;;;;;5043388;28;20988;-68
2023/03/17 03:19:13;;;;;;;2.13;1.93;;;;;;;;;;5048701;28;20529;-68
2023/03/17 03:21:39;;;;;;;2.03;1.90;;;;;;;;;;5048908;28;20529;-68
2023/03/17 03:24:06;;;;;;;2.50;2.30;;;;;;;;;;5046743;28;20457;-68
2023/03/17 03:26:32;;;;;;;2.07;1.77;;;;;;;;;;5046283;28;20799;-68
2023/03/17 03:28:58;;;;;;;2.87;2.37;;;;;;;;;;5048175;28;20435;-68
2023/03/17 03:31:25;;;;;;;1.73;1.63;;;;;;;;;;5046731;28;20426;-68
2023/03/17 03:33:51;;;;;;;1.47;1.47;;;;;;;;;;5047203;28;20480;-68
2023/03/17 03:36:17;;;;;;;1.90;1.80;;;;;;;;;;5047303;28;20441;-68
2023/03/17 03:38:43;;;;;;;2.20;2.10;;;;;;;;;;5044999;28;20520;-68
2023/03/17 03:41:10;;;;;;;2.20;2.13;;;;;;;;;;5048883;28;20634;-69
2023/03/17 03:43:36;;;;;;;6.20;1.90;;;;;;;;;;5049772;28;20434;-68
2023/03/17 03:46:04;;;;;;;2.10;2.10;;;;;;;;;;5049202;28;20439;-69
2023/03/17 03:48:30;;;;;;;1.70;1.53;;;;;;;;;;5049130;28;20441;-69
2023/03/17 03:51:00;;;;;;;1.33;1.33;;;;;;;;;;5043368;28;20414;-68
2023/03/17 03:53:27;;;;;;;1.53;1.43;;;;;;;;;;5045520;28;20516;-68
2023/03/17 03:55:53;;;;;;;1.50;1.50;;;;;;;;;;5046049;28;20488;-69
2023/03/17 03:58:19;;;;;;;2.90;1.47;;;;;;;;;;5048816;28;20438;-69
2023/03/17 04:00:45;;;;;;;2.83;1.50;;;;;;;;;;5049297;28;20454;-68
2023/03/17 04:03:12;;;;;;;1.60;1.60;;;;;;;;;;5045745;28;20520;-68
2023/03/17 04:05:38;;;;;;;2.43;2.33;;;;;;;;;;5046249;28;20859;-68
2023/03/17 04:08:04;;;;;;;3.07;1.30;;;;;;;;;;5045993;28;20434;-68
2023/03/17 04:10:30;;;;;;;1.50;1.40;;;;;;;;;;5048006;28;20442;-68
2023/03/17 04:12:56;;;;;;;6.63;1.57;;;;;;;;;;5047380;28;20486;-69
2023/03/17 04:15:23;;;;;;;1.87;1.30;;;;;;;;;;5047438;28;20431;-68
2023/03/17 04:17:49;;;;;;;1.00;1.00;;;;;;;;;;5046847;28;20478;-68
2023/03/17 04:20:18;;;;;;;1.20;1.20;;;;;;;;;;5045021;28;20462;-68
2023/03/17 04:22:44;;;;;;;1.43;1.43;;;;;;;;;;5047797;28;20438;-69
2023/03/17 04:25:12;;;;;;;2.60;1.60;;;;;;;;;;5048937;28;20441;-68
2023/03/17 04:27:38;;;;;;;3.43;1.53;;;;;;;;;;5046409;28;20446;-69
2023/03/17 04:30:05;;;;;;;1.90;1.90;;;;;;;;;;5045932;28;20521;-69
2023/03/17 04:32:31;;;;;;;1.83;1.73;;;;;;;;;;5045309;28;20457;-68
2023/03/17 04:34:57;;;;;;;2.67;2.57;;;;;;;;;;5048099;28;20439;-69
2023/03/17 04:37:23;;;;;;;1.40;1.40;;;;;;;;;;5046189;28;20434;-69
2023/03/17 04:39:50;;;;;;;2.33;2.10;;;;;;;;;;5045507;28;20930;-69
2023/03/17 04:42:16;;;;;;;1.57;1.47;;;;;;;;;;5048258;28;20438;-68
2023/03/17 04:44:42;;;;;;;0.90;0.90;;;;;;;;;;5042390;28;20422;-68
2023/03/17 04:47:08;;;;;;;2.60;1.13;;;;;;;;;;5051351;28;20942;-69
2023/03/17 04:49:34;;;;;;;2.70;1.70;;;;;;;;;;5051516;28;20426;-69
2023/03/17 04:52:00;;;;;;;1.47;1.10;;;;;;;;;;5052458;28;20453;-69
2023/03/17 04:54:26;;;;;;;2.03;1.50;;;;;;;;;;5051335;28;20483;-68
2023/03/17 04:56:52;;;;;;;1.27;1.27;;;;;;;;;;5049929;28;20426;-68
2023/03/17 04:59:19;;;;;;;1.70;1.30;;;;;;;;;;5049023;28;20448;-68
2023/03/17 05:01:45;;;;;;;1.10;1.10;;;;;;;;;;5049917;28;20449;-68
2023/03/17 05:04:11;;;;;;;2.90;1.80;;;;;;;;;;5049596;28;20461;-68
2023/03/17 05:06:37;;;;;;;1.10;1.10;;;;;;;;;;5049711;28;20985;-68
2023/03/17 05:09:03;;;;;;;1.10;1.10;;;;;;;;;;5046202;28;20472;-68
2023/03/17 05:11:31;;;;;;;1.57;1.57;;;;;;;;;;5049942;28;20427;-68
2023/03/17 05:13:57;;;;;;;2.10;2.00;;;;;;;;;;5045804;28;20815;-69
2023/03/17 05:16:22;;;;;;;1.83;1.83;;;;;;;;;;5051208;28;20965;-68
2023/03/17 05:18:48;;;;;;;1.70;1.70;;;;;;;;;;5050326;28;20844;-68
2023/03/17 05:21:15;;;;;;;2.70;1.47;;;;;;;;;;5048756;28;20309;-68
2023/03/17 05:23:41;;;;;;;1.90;1.90;;;;;;;;;;5052538;28;20414;-68
2023/03/17 05:26:07;;;;;;;1.67;1.67;;;;;;;;;;5045199;28;20422;-69
2023/03/17 05:28:33;;;;;;;1.10;1.10;;;;;;;;;;5051212;28;20807;-69
2023/03/17 05:30:59;;;;;;;1.60;1.50;;;;;;;;;;5047393;28;20456;-68
2023/03/17 05:33:25;;;;;;;1.53;1.43;;;;;;;;;;5047616;28;20568;-69
2023/03/17 05:35:52;;;;;;;2.43;1.57;;;;;;;;;;5051077;28;20434;-68
2023/03/17 05:38:18;;;;;;;1.40;1.40;;;;;;;;;;5046588;28;20453;-69
2023/03/17 05:40:44;;;;;;;1.23;1.23;;;;;;;;;;5049682;28;20438;-68
2023/03/17 05:43:10;;;;;;;1.50;1.50;;;;;;;;;;5048275;28;20442;-68
2023/03/17 05:45:36;;;;;;;1.70;1.70;;;;;;;;;;5048637;28;20438;-68
2023/03/17 05:48:03;;;;;;;1.50;1.40;;;;;;;;;;5049848;28;20447;-76
2023/03/17 05:50:29;;;;;;;1.60;1.60;;;;;;;;;;5049806;28;20517;-68
2023/03/17 05:52:55;;;;;;;1.77;1.63;;;;;;;;;;5050262;28;21065;-69
2023/03/17 05:55:21;;;;;;;3.63;1.60;;;;;;;;;;5047628;28;20533;-69
2023/03/17 05:57:47;;;;;;;2.77;1.77;;;;;;;;;;5042150;28;20937;-71
2023/03/17 06:00:15;;;;;;;1.77;1.67;;;;;;;;;;5048474;28;20852;-71
2023/03/17 06:02:41;;;;;;;3.33;1.50;;;;;;;;;;5051064;28;20521;-68
2023/03/17 06:05:08;;;;;;;1.90;1.50;;;;;;;;;;5047693;28;20954;-68
2023/03/17 06:07:35;;;;;;;2.27;1.60;;;;;;;;;;5045308;28;20439;-71
2023/03/17 06:10:01;;;;;;;2.63;1.33;;;;;;;;;;5045728;28;20489;-71
2023/03/17 06:12:27;;;;;;;4.50;2.00;;;;;;;;;;5049052;28;20604;-68
2023/03/17 06:14:53;;;;;;;3.20;1.87;;;;;;;;;;5048258;28;20483;-68
2023/03/17 06:17:19;;;;;;;1.80;1.80;;;;;;;;;;5048208;28;20430;-72
2023/03/17 06:19:45;;;;;;;2.53;2.30;;;;;;;;;;5047644;28;20457;-71
2023/03/17 06:22:12;;;;;;;1.90;1.80;;;;;;;;;;5046399;28;21172;-71
2023/03/17 06:24:38;;;;;;;3.50;2.17;;;;;;;;;;5045380;28;20537;-71
2023/03/17 06:27:04;;;;;;;2.60;2.50;;;;;;;;;;5046114;28;20446;-71
2023/03/17 06:29:30;;;;;;;7.03;3.60;;;;;;;;;;5047172;28;20438;-71
2023/03/17 06:31:56;;;;;;;11.40;6.67;;;;;;;;;;5046184;28;20461;-71
2023/03/17 06:34:23;;;;;;;2.47;2.37;;;;;;;;;;5044574;28;20482;-71
2023/03/17 06:36:50;;;;;;;2.60;2.50;;;;;;;;;;5038659;28;20954;-71
2023/03/17 06:39:17;;;;;;;4.40;4.00;;;;;;;;;;5061682;28;21138;-69
2023/03/17 06:41:43;;;;;;;2.60;2.40;;;;;;;;;;5042962;28;20442;-68
2023/03/17 06:44:09;;;;;;;3.00;2.90;;;;;;;;;;5048007;28;20826;-68
2023/03/17 06:46:35;;;;;;;8.80;5.90;;;;;;;;;;5046695;28;20430;-68
2023/03/17 06:49:02;;;;;;;13.30;8.83;;;;;;;;;;5039042;28;20455;-68
2023/03/17 06:51:28;;;;;;;7.83;6.50;;;;;;;;;;5046071;28;20470;-69
2023/03/17 06:53:54;;;;;;;4.43;4.13;;;;;;;;;;5044215;28;20484;-68
2023/03/17 06:56:20;;;;;;;6.33;4.80;;;;;;;;;;5047675;28;20951;-68
2023/03/17 06:58:46;;;;;;;3.50;3.30;;;;;;;;;;5048117;28;20434;-69
2023/03/17 07:01:13;;;;;;;2.77;2.67;;;;;;;;;;5044201;28;20423;-74
2023/03/17 07:03:39;;;;;;;2.87;2.00;;;;;;;;;;5046485;28;20439;-68
2023/03/17 07:06:05;;;;;;;2.30;2.20;;;;;;;;;;5048359;28;20772;-68
2023/03/17 07:08:32;;;;;;;2.53;2.33;;;;;;;;;;5046679;28;20922;-68
2023/03/17 07:10:58;;;;;;;2.43;2.30;;;;;;;;;;5046562;28;20891;-68
2023/03/17 07:13:24;;;;;;;3.20;2.47;;;;;;;;;;5046671;28;20576;-69
2023/03/17 07:15:50;;;;;;;2.13;2.13;;;;;;;;;;5046447;28;20467;-69
2023/03/17 07:18:17;;;;;;;3.03;2.75;;;;;;;;;;5050162;28;20412;-68
2023/03/17 07:20:43;;;;;;;2.70;2.50;;;;;;;;;;5049799;28;20241;-69
2023/03/17 07:23:18;;;;;;;2.87;2.67;;;;;;;;;;5046691;28;20422;-69
2023/03/17 07:25:46;;;;;;;6.67;3.00;;;;;;;;;;5044934;28;20430;-68
2023/03/17 07:28:12;;;;;;;2.20;2.10;;;;;;;;;;5043791;28;20496;-69
2023/03/17 07:30:39;;;;;;;3.03;2.57;;;;;;;;;;5042531;28;20455;-68
2023/03/17 07:33:05;;;;;;;3.30;3.00;;;;;;;;;;5039376;28;20577;-68
2023/03/17 07:35:32;;;;;;;2.47;2.37;;;;;;;;;;5045887;28;20438;-69
2023/03/17 07:37:58;;;;;;;5.10;3.20;;;;;;;;;;5047288;28;20434;-68
2023/03/17 07:40:24;;;;;;;3.47;2.97;;;;;;;;;;5050213;28;20422;-68
2023/03/17 07:42:50;;;;;;;3.73;3.53;;;;;;;;;;5047597;28;20874;-68
2023/03/17 07:45:16;;;;;;;3.23;3.13;;;;;;;;;;5049640;28;20644;-68
2023/03/17 07:47:42;;;;;;;2.87;2.77;;;;;;;;;;5043871;28;20447;-68
2023/03/17 07:50:09;;;;;;;3.10;2.87;;;;;;;;;;5048589;28;20427;-68
2023/03/17 07:52:36;;;;;;;3.00;2.80;;;;;;;;;;5049196;28;20426;-68
2023/03/17 07:55:03;;;;;;;3.20;3.10;;;;;;;;;;5048251;28;20603;-68
2023/03/17 07:57:29;;;;;;;4.17;3.40;;;;;;;;;;5049202;28;20415;-68
2023/03/17 07:59:55;;;;;;;3.17;2.93;;;;;;;;;;5046365;28;20553;-69
2023/03/17 08:02:21;;;;;;;4.53;3.50;;;;;;;;;;5048313;28;21326;-68
2023/03/17 08:04:47;;;;;;;5.17;2.90;;;;;;;;;;5045885;28;20430;-68
2023/03/17 08:07:14;;;;;;;3.23;2.97;;;;;;;;;;5049537;28;20427;-68
2023/03/17 08:09:40;;;;;;;7.43;3.70;;;;;;;;;;5048954;28;20422;-68
2023/03/17 08:12:07;;;;;;;3.53;3.40;;;;;;;;;;5046045;28;20474;-68
2023/03/17 08:14:33;;;;;;;3.63;3.37;;;;;;;;;;5045694;28;20485;-68
2023/03/17 08:16:59;;;;;;;5.90;3.57;;;;;;;;;;5046718;28;20844;-69
2023/03/17 08:19:25;;;;;;;6.67;3.40;;;;;;;;;;5048892;28;20434;-69
2023/03/17 08:21:51;;;;;;;3.23;3.13;;;;;;;;;;5041791;28;20446;-68
2023/03/17 08:24:17;;;;;;;2.83;2.63;;;;;;;;;;5037731;28;20500;-69
2023/03/17 08:26:46;;;;;;;3.50;3.30;;;;;;;;;;5044081;28;20466;-69
2023/03/17 08:29:12;;;;;;;3.27;2.90;;;;;;;;;;5045207;28;20468;-69
2023/03/17 08:31:39;;;;;;;2.90;2.70;;;;;;;;;;5049117;28;20918;-69
2023/03/17 08:34:05;;;;;;;2.97;2.83;;;;;;;;;;5047222;28;20745;-69
2023/03/17 08:36:31;;;;;;;3.60;3.33;;;;;;;;;;5047286;28;20488;-68
2023/03/17 08:38:58;;;;;;;5.17;3.33;;;;;;;;;;5046137;28;20434;-68
2023/03/17 08:41:26;;;;;;;3.27;3.07;;;;;;;;;;5048088;28;20563;-69
2023/03/17 08:43:52;;;;;;;4.17;2.87;;;;;;;;;;5049156;28;20434;-70
2023/03/17 08:46:20;;;;;;;3.33;3.13;;;;;;;;;;5045151;28;20427;-69
2023/03/17 08:48:49;;;;;;;5.77;3.13;;;;;;;;;;5042576;28;20542;-69
2023/03/17 08:51:16;;;;;;;2.73;2.53;;;;;;;;;;5047286;28;20418;-69
2023/03/17 08:53:42;;;;;;;3.77;2.90;;;;;;;;;;5044027;28;20477;-69
2023/03/17 08:56:08;;;;;;;3.37;2.93;;;;;;;;;;5035778;28;20438;-68
2023/03/17 08:58:35;;;;;;;6.90;3.17;;;;;;;;;;5041953;28;20442;-69
2023/03/17 09:01:02;;;;;;;3.10;2.80;;;;;;;;;;5042530;28;20426;-69
2023/03/17 09:03:28;;;;;;;2.53;2.53;;;;;;;;;;5043574;28;20439;-69
2023/03/17 09:05:54;;;;;;;7.43;3.60;;;;;;;;;;5048751;28;20419;-69
2023/03/17 09:08:21;;;;;;;3.77;3.53;;;;;;;;;;5048390;28;20444;-69
2023/03/17 09:10:47;;;;;;;3.43;3.33;;;;;;;;;;5046471;28;20436;-69
2023/03/17 09:13:14;;;;;;;3.93;3.53;;;;;;;;;;5044577;28;20485;-69
2023/03/17 09:15:40;;;;;;;3.40;3.20;;;;;;;;;;5048717;28;20422;-69
2023/03/17 09:18:07;;;;;;;7.37;6.73;;;;;;;;;;5047541;28;20426;-69
2023/03/17 09:20:33;;;;;;;3.63;3.43;;;;;;;;;;5045168;28;20438;-69
2023/03/17 09:23:00;;;;;;;2.73;2.63;;;;;;;;;;5038766;28;20608;-69
2023/03/17 09:25:26;;;;;;;7.10;2.73;;;;;;;;;;5042289;28;21147;-69
2023/03/17 09:27:52;;;;;;;3.30;3.07;;;;;;;;;;5046445;28;20848;-69
2023/03/17 09:30:18;;;;;;;3.60;3.47;;;;;;;;;;5039557;28;20474;-69
2023/03/17 09:32:45;;;;;;;3.03;2.90;;;;;;;;;;5044222;28;21202;-69
2023/03/17 09:35:11;;;;;;;3.30;3.00;;;;;;;;;;5051983;28;20897;-68
2023/03/17 09:37:37;;;;;;;7.83;3.20;;;;;;;;;;5048058;28;20446;-69
2023/03/17 09:40:07;;;;;;;2.97;2.80;;;;;;;;;;5050868;28;20469;-69
2023/03/17 09:42:51;;;;;;;3.20;2.87;;;;;;;;;;5050696;28;20426;-69
2023/03/17 09:45:30;;;;;;;2.93;2.73;;;;;;;;;;5047653;28;20433;-69
2023/03/17 09:48:15;;;;;;;4.10;3.80;;;;;;;;;;5051462;28;21621;-69
2023/03/17 09:50:53;;;;;;;5.50;2.67;;;;;;;;;;5048310;28;21078;-69
2023/03/17 09:53:21;;;;;;;3.30;3.10;;;;;;;;;;5040054;28;20469;-69
2023/03/17 09:55:51;;;;;;;2.93;2.73;;;;;;;;;;5049729;28;20439;-69
2023/03/17 09:58:20;;;;;;;2.87;2.77;;;;;;;;;;5042607;28;20456;-69
2023/03/17 10:00:46;;;;;;;3.17;2.97;;;;;;;;;;5045008;28;20497;-69
2023/03/17 10:03:13;;;;;;;3.13;3.00;;;;;;;;;;5042548;28;20446;-69
2023/03/17 10:05:39;;;;;;;3.33;3.20;;;;;;;;;;5049942;28;20950;-69
2023/03/17 10:08:20;;;;;;;3.17;2.97;;;;;;;;;;5049254;28;20473;-69
2023/03/17 10:10:48;;;;;;;2.50;2.50;;;;;;;;;;5049128;28;21027;-69
2023/03/17 10:13:33;;;;;;;4.00;3.13;;;;;;;;;;5051342;28;21036;-69
2023/03/17 10:16:06;;;;;;;7.30;3.53;;;;;;;;;;5045953;28;20454;-69
2023/03/17 10:18:38;;;;;;;9.87;2.30;;;;;;;;;;5059343;28;20436;-69
2023/03/17 10:21:04;;;;;;;3.00;2.90;;;;;;;;;;5044084;28;20445;-69
2023/03/17 10:23:34;;;;;;;3.70;3.50;;;;;;;;;;5046016;28;20500;-69
2023/03/17 10:26:05;;;;;;;2.80;2.60;;;;;;;;;;5046803;28;20439;-69
2023/03/17 10:28:34;;;;;;;3.60;3.30;;;;;;;;;;5044154;28;20958;-69
2023/03/17 10:31:17;;;;;;;3.67;2.97;;;;;;;;;;5040429;28;20442;-69
2023/03/17 10:33:45;;;;;;;2.93;2.83;;;;;;;;;;5037242;28;20481;-69
2023/03/17 10:36:15;;;;;;;3.20;3.00;;;;;;;;;;5044166;28;20446;-69
2023/03/17 10:38:49;;;;;;;3.07;2.90;;;;;;;;;;5042223;28;21639;-69
2023/03/17 10:41:15;;;;;;;5.23;2.67;;;;;;;;;;5037935;28;20437;-69
2023/03/17 10:43:46;;;;;;;4.13;3.10;;;;;;;;;;5045012;28;20965;-69
2023/03/17 10:46:17;;;;;;;2.97;2.77;;;;;;;;;;5058695;28;20512;-69
2023/03/17 10:48:49;;;;;;;2.80;2.70;;;;;;;;;;5049294;28;20430;-69
2023/03/17 10:51:19;;;;;;;3.63;3.20;;;;;;;;;;5045693;28;20461;-70
2023/03/17 10:53:45;;;;;;;8.60;3.40;;;;;;;;;;5060319;28;20506;-69
2023/03/17 10:56:23;;;;;;;2.57;2.47;;;;;;;;;;5041287;28;20431;-69
2023/03/17 10:58:50;;;;;;;4.17;2.20;;;;;;;;;;5047216;28;20475;-69
2023/03/17 11:01:29;;;;;;;4.20;3.00;;;;;;;;;;5049318;28;20419;-69
2023/03/17 11:03:56;;;;;;;3.57;2.73;;;;;;;;;;5047944;28;20523;-70
2023/03/17 11:06:36;;;;;;;2.33;1.83;;;;;;;;;;5049383;28;20493;-69
2023/03/17 11:09:08;;;;;;;2.50;2.40;;;;;;;;;;5047073;28;20438;-69
2023/03/17 11:11:41;;;;;;;2.80;2.70;;;;;;;;;;5050519;28;20469;-69
2023/03/17 11:14:12;;;;;;;3.77;2.13;;;;;;;;;;5043879;28;20849;-69
2023/03/17 11:16:39;;;;;;;9.03;6.60;;;;;;;;;;5042938;28;20893;-69
2023/03/17 11:19:10;;;;;;;9.80;7.60;;;;;;;;;;5046481;28;20536;-68
2023/03/17 11:22:01;;;;;;;14.30;5.70;;;;;;;;;;5044090;28;20434;-68
2023/03/17 11:24:36;;;;;;;3.53;3.40;;;;;;;;;;5047847;28;20426;-68
2023/03/17 11:27:05;;;;;;;2.17;2.13;;;;;;;;;;5047681;28;20950;-68
2023/03/17 11:29:49;;;;;;;2.00;1.90;;;;;;;;;;5047078;28;20426;-69
2023/03/17 11:32:25;;;;;;;1.43;1.33;;;;;;;;;;5047265;28;20517;-70
2023/03/17 11:34:57;;;;;;;2.60;2.50;;;;;;;;;;5046116;28;20490;-70
2023/03/17 11:37:49;;;;;;;3.10;2.67;;;;;;;;;;5045191;28;20533;-69
2023/03/17 11:40:18;;;;;;;2.00;1.90;;;;;;;;;;5043846;28;20943;-70
2023/03/17 11:42:44;;;;;;;2.67;2.57;;;;;;;;;;5043001;28;20942;-69
2023/03/17 11:45:15;;;;;;;2.20;2.20;;;;;;;;;;5046483;28;20466;-69
2023/03/17 11:47:51;;;;;;;50.97;25.13;;;;;;;;;;5047985;28;20434;-70
2023/03/17 11:50:33;;;;;;;6.63;6.03;;;;;;;;;;5046636;28;20423;-69
2023/03/17 11:53:18;;;;;;;4.22;2.95;;;;;;;;;;5045229;28;21050;-70
2023/03/17 11:56:01;;;;;;;2.53;2.37;;;;;;;;;;5045240;28;20192;-70
2023/03/17 11:58:39;;;;;;;2.20;2.10;;;;;;;;;;5046131;28;20501;-69
2023/03/17 12:01:10;;;;;;;2.60;2.10;;;;;;;;;;5046152;28;20813;-70
2023/03/17 12:03:42;;;;;;;9.47;8.50;;;;;;;;;;5047439;28;20436;-69
2023/03/17 12:06:14;;;;;;;3.60;3.30;;;;;;;;;;5039952;28;21702;-70
2023/03/17 12:08:44;;;;;;;13.20;9.73;;;;;;;;;;5042752;28;20430;-69
2023/03/17 12:11:13;;;;;;;14.57;9.20;;;;;;;;;;5027774;28;21035;-69
2023/03/17 12:13:44;;;;;;;4.30;3.93;;;;;;;;;;5045156;28;20990;-69
2023/03/17 12:16:32;;;;;;;3.53;3.00;;;;;;;;;;5048768;28;20508;-69
2023/03/17 12:19:02;;;;;;;3.13;3.03;;;;;;;;;;5048330;28;20426;-69
2023/03/17 12:21:49;;;;;;;11.17;7.30;;;;;;;;;;5044730;28;20434;-69
2023/03/17 12:24:33;;;;;;;2.83;2.67;;;;;;;;;;5047146;28;20446;-70
2023/03/17 12:27:03;;;;;;;5.00;3.90;;;;;;;;;;5047791;28;20454;-70
2023/03/17 12:29:48;;;;;;;2.07;2.07;;;;;;;;;;5048916;28;20430;-69
2023/03/17 12:32:18;;;;;;;13.57;9.07;;;;;;;;;;5046938;28;20422;-69
2023/03/17 12:34:50;;;;;;;23.43;15.13;;;;;;;;;;5043348;28;20482;-70
2023/03/17 12:37:18;;;;;;;5.43;5.00;;;;;;;;;;5043112;28;20419;-70
2023/03/17 12:40:06;;;;;;;4.17;3.80;;;;;;;;;;5039764;28;20958;-70
2023/03/17 12:42:33;;;;;;;3.30;3.10;;;;;;;;;;5037537;28;20433;-70
2023/03/17 12:45:01;;;;;;;6.23;4.23;;;;;;;;;;5045617;28;20438;-70
2023/03/17 12:47:34;;;;;;;3.30;3.07;;;;;;;;;;5045239;28;20430;-65
2023/03/17 12:50:12;;;;;;;9.53;3.50;;;;;;;;;;5048491;28;20450;-70
2023/03/17 12:52:44;;;;;;;7.20;5.17;;;;;;;;;;5048294;28;20426;-70
2023/03/17 12:55:15;;;;;;;7.40;4.77;;;;;;;;;;5030668;28;20528;-70
2023/03/17 12:58:02;;;;;;;12.33;6.00;;;;;;;;;;5040505;28;20919;-69
2023/03/17 13:00:29;;;;;;;5.13;4.83;;;;;;;;;;5044304;28;20449;-70
2023/03/17 13:03:14;;;;;;;2.10;2.00;;;;;;;;;;5047209;28;20502;-70
2023/03/17 13:05:44;;;;;;;6.33;3.63;;;;;;;;;;5044118;28;20517;-70
2023/03/17 13:08:14;;;;;;;5.10;2.87;;;;;;;;;;5046653;28;20496;-70
2023/03/17 13:10:46;;;;;;;20.63;6.27;;;;;;;;;;5051134;28;20430;-69
2023/03/17 13:13:28;;;;;;;2.17;1.90;;;;;;;;;;5048947;28;20486;-69
2023/03/17 13:15:57;;;;;;;1.57;1.53;;;;;;;;;;5047682;28;21020;-69
2023/03/17 13:18:29;;;;;;;1.83;1.73;;;;;;;;;;5041534;28;20483;-69
2023/03/17 13:21:01;;;;;;;2.30;2.20;;;;;;;;;;5048113;28;20454;-69
2023/03/17 13:23:39;;;;;;;2.60;2.40;;;;;;;;;;5046322;28;20791;-69
2023/03/17 13:26:05;;;;;;;1.67;1.67;;;;;;;;;;5044816;28;20451;-69
2023/03/17 13:28:34;;;;;;;1.80;1.57;;;;;;;;;;5048997;28;20491;-68
2023/03/17 13:31:12;;;;;;;2.03;1.90;;;;;;;;;;5045919;28;20516;-69
2023/03/17 13:33:43;;;;;;;1.67;1.57;;;;;;;;;;5047150;28;20488;-69
2023/03/17 13:36:22;;;;;;;3.90;1.83;;;;;;;;;;5042755;28;20462;-70
2023/03/17 13:38:56;;;;;;;1.10;1.00;;;;;;;;;;5048731;28;20438;-69
2023/03/17 13:41:25;;;;;;;0.77;0.77;;;;;;;;;;5045937;28;20793;-69
2023/03/17 13:43:58;;;;;;;2.67;1.43;;;;;;;;;;5048482;28;20485;-69
2023/03/17 13:46:39;;;;;;;0.93;0.93;;;;;;;;;;5049649;28;20431;-69
2023/03/17 13:49:20;;;;;;;1.17;1.17;;;;;;;;;;5047691;28;20489;-63
2023/03/17 13:52:09;;;;;;;1.37;0.90;;;;;;;;;;5049593;28;20442;-69
2023/03/17 13:54:41;;;;;;;1.63;0.70;;;;;;;;;;5029797;28;20488;-70
2023/03/17 13:57:24;;;;;;;0.80;0.80;;;;;;;;;;5043270;28;20442;-70
2023/03/17 13:59:50;;;;;;;0.50;0.50;;;;;;;;;;5049680;28;20489;-70
2023/03/17 14:02:24;;;;;;;9.10;1.10;;;;;;;;;;5049846;28;20434;-70
2023/03/17 14:04:53;;;;;;;0.73;0.73;;;;;;;;;;5045204;28;20432;-70
2023/03/17 14:07:21;;;;;;;0.53;0.53;;;;;;;;;;5047242;28;20497;-70
2023/03/17 14:09:51;;;;;;;1.63;1.00;;;;;;;;;;5049860;28;20430;-70
2023/03/17 14:12:31;;;;;;;1.10;1.00;;;;;;;;;;5049442;28;20505;-70
2023/03/17 14:15:07;;;;;;;1.27;0.80;;;;;;;;;;5048255;28;20580;-71
2023/03/17 14:17:42;;;;;;;1.73;1.00;;;;;;;;;;5048974;28;20449;-70
2023/03/17 14:20:27;;;;;;;1.80;0.97;;;;;;;;;;5049839;28;20418;-70
2023/03/17 14:22:58;;;;;;;1.13;1.13;;;;;;;;;;5051003;28;20426;-70
2023/03/17 14:25:26;;;;;;;2.70;0.80;;;;;;;;;;5047727;28;20488;-70
2023/03/17 14:27:53;;;;;;;1.30;1.20;;;;;;;;;;5049521;28;20431;-70
2023/03/17 14:30:19;;;;;;;0.80;0.80;;;;;;;;;;5045197;28;20438;-69
2023/03/17 14:32:47;;;;;;;2.57;0.70;;;;;;;;;;5045238;28;20531;-69
2023/03/17 14:35:14;;;;;;;1.13;0.70;;;;;;;;;;5042816;28;20493;-70
2023/03/17 14:37:40;;;;;;;2.40;1.00;;;;;;;;;;5044425;28;20461;-70
2023/03/17 14:40:19;;;;;;;0.70;0.70;;;;;;;;;;5049635;28;20926;-70
2023/03/17 14:42:45;;;;;;;1.67;0.80;;;;;;;;;;5050537;28;20418;-70
2023/03/17 14:45:26;;;;;;;1.40;1.40;;;;;;;;;;5047245;28;20430;-70
2023/03/17 14:47:53;;;;;;;1.03;0.77;;;;;;;;;;5047435;28;21822;-69
2023/03/17 14:50:25;;;;;;;1.20;1.10;;;;;;;;;;5050608;28;20525;-70
2023/03/17 14:52:51;;;;;;;0.50;0.50;;;;;;;;;;5050237;28;20427;-69
2023/03/17 14:55:18;;;;;;;3.63;1.17;;;;;;;;;;5047027;28;20524;-70